Time;durP1;ratioP1;P1;durP2;ratioP2;P2;SDS_P1;SDS_P2;PMS_P1;PMS_P2;Temp;Humidity;BMP_temperature;BMP_pressure;BME280_temperature;BME280_humidity;BME280_pressure;Samples;Min_cycle;Max_cycle;Signal;HPM_P1;HPM_P2
2021/01/11 00:01:20;;;;;;;25.67;4.22;;;;;;;;;;5037974;28;20148;-68
2021/01/11 00:03:46;;;;;;;25.27;4.40;;;;;;;;;;5038596;28;20052;-68
2021/01/11 00:06:12;;;;;;;25.77;6.53;;;;;;;;;;5037796;28;20037;-68
2021/01/11 00:08:40;;;;;;;24.77;5.30;;;;;;;;;;5040628;28;20410;-68
2021/01/11 00:11:06;;;;;;;67.40;6.07;;;;;;;;;;5037787;28;20033;-68
2021/01/11 00:13:32;;;;;;;31.45;5.85;;;;;;;;;;5039349;28;20041;-68
2021/01/11 00:15:59;;;;;;;44.22;6.43;;;;;;;;;;5036062;28;20052;-67
2021/01/11 00:18:25;;;;;;;29.85;6.90;;;;;;;;;;5038946;28;20120;-68
2021/01/11 00:20:51;;;;;;;32.67;5.85;;;;;;;;;;5037412;28;20131;-68
2021/01/11 00:23:17;;;;;;;29.30;5.68;;;;;;;;;;5038773;28;20033;-68
2021/01/11 00:25:43;;;;;;;30.98;6.75;;;;;;;;;;5042175;28;20042;-68
2021/01/11 00:28:10;;;;;;;32.00;6.57;;;;;;;;;;5039299;28;20507;-68
2021/01/11 00:30:36;;;;;;;41.67;7.22;;;;;;;;;;5034902;28;20041;-68
2021/01/11 00:33:02;;;;;;;36.80;8.15;;;;;;;;;;5038204;28;20071;-68
2021/01/11 00:35:28;;;;;;;39.03;7.72;;;;;;;;;;5038864;28;20049;-68
2021/01/11 00:37:55;;;;;;;40.53;8.45;;;;;;;;;;5038011;28;20049;-68
2021/01/11 00:40:21;;;;;;;42.55;9.05;;;;;;;;;;5039837;28;20041;-68
2021/01/11 00:42:47;;;;;;;49.22;8.55;;;;;;;;;;5039262;28;20041;-68
2021/01/11 00:45:13;;;;;;;38.88;8.05;;;;;;;;;;5038278;28;20041;-68
2021/01/11 00:47:40;;;;;;;34.55;7.68;;;;;;;;;;5039107;28;20473;-68
2021/01/11 00:50:10;;;;;;;39.70;8.05;;;;;;;;;;5039728;28;20079;-68
2021/01/11 00:52:37;;;;;;;35.72;7.65;;;;;;;;;;5019614;28;20114;-68
2021/01/11 00:55:08;;;;;;;42.05;8.38;;;;;;;;;;5039037;28;20048;-68
2021/01/11 00:57:44;;;;;;;30.55;4.88;;;;;;;;;;5054433;28;20503;-68
2021/01/11 01:00:16;;;;;;;37.92;8.00;;;;;;;;;;5034819;28;20046;-68
2021/01/11 01:02:52;;;;;;;50.92;7.63;;;;;;;;;;5035301;28;20047;-68
2021/01/11 01:05:19;;;;;;;47.95;8.52;;;;;;;;;;5037663;28;20045;-68
2021/01/11 01:07:45;;;;;;;31.10;6.93;;;;;;;;;;5036556;28;20045;-68
2021/01/11 01:10:11;;;;;;;31.70;7.00;;;;;;;;;;5030139;28;20845;-67
2021/01/11 01:12:39;;;;;;;36.17;7.55;;;;;;;;;;5038040;28;20045;-68
2021/01/11 01:15:05;;;;;;;29.58;5.72;;;;;;;;;;5039595;28;20067;-68
2021/01/11 01:17:37;;;;;;;37.00;7.80;;;;;;;;;;5036088;28;20049;-68
2021/01/11 01:20:05;;;;;;;38.72;7.13;;;;;;;;;;5038933;28;20042;-68
2021/01/11 01:22:31;;;;;;;32.83;6.60;;;;;;;;;;5039727;28;20077;-68
2021/01/11 01:24:57;;;;;;;37.55;6.55;;;;;;;;;;5035959;28;20045;-68
2021/01/11 01:27:23;;;;;;;30.65;6.95;;;;;;;;;;5036651;28;20160;-68
2021/01/11 01:29:50;;;;;;;41.50;6.78;;;;;;;;;;5037604;28;20045;-67
2021/01/11 01:32:16;;;;;;;40.35;6.78;;;;;;;;;;5036304;28;20130;-68
2021/01/11 01:34:42;;;;;;;36.83;6.90;;;;;;;;;;5040541;28;20052;-68
2021/01/11 01:37:09;;;;;;;31.25;6.97;;;;;;;;;;5039860;28;20098;-68
2021/01/11 01:39:35;;;;;;;34.92;6.72;;;;;;;;;;5036608;28;20065;-68
2021/01/11 01:42:01;;;;;;;44.43;6.90;;;;;;;;;;5036274;28;20049;-68
2021/01/11 01:44:27;;;;;;;34.03;7.22;;;;;;;;;;5039644;28;20307;-68
2021/01/11 01:46:54;;;;;;;40.10;6.50;;;;;;;;;;5033946;28;20042;-68
2021/01/11 01:49:20;;;;;;;31.27;6.80;;;;;;;;;;5037531;28;20110;-68
2021/01/11 01:51:46;;;;;;;34.20;6.72;;;;;;;;;;5037588;28;20500;-69
2021/01/11 01:54:12;;;;;;;41.65;7.20;;;;;;;;;;5038354;28;20055;-68
2021/01/11 01:56:39;;;;;;;48.67;7.00;;;;;;;;;;5041297;28;20486;-68
2021/01/11 01:59:05;;;;;;;39.13;7.47;;;;;;;;;;5041825;28;20045;-68
2021/01/11 02:01:33;;;;;;;43.45;6.88;;;;;;;;;;5042305;28;20045;-68
2021/01/11 02:03:59;;;;;;;33.30;7.60;;;;;;;;;;5042658;28;20456;-68
2021/01/11 02:06:28;;;;;;;37.28;6.38;;;;;;;;;;5040429;28;20123;-68
2021/01/11 02:09:01;;;;;;;35.60;7.10;;;;;;;;;;5041504;28;20091;-68
2021/01/11 02:11:29;;;;;;;30.08;6.75;;;;;;;;;;5042564;28;20535;-68
2021/01/11 02:14:05;;;;;;;33.30;6.75;;;;;;;;;;5040496;28;20080;-68
2021/01/11 02:16:50;;;;;;;44.72;6.90;;;;;;;;;;5042933;28;20045;-68
2021/01/11 02:19:17;;;;;;;36.28;6.65;;;;;;;;;;5042841;28;20049;-68
2021/01/11 02:21:44;;;;;;;36.33;6.78;;;;;;;;;;5038893;28;20050;-68
2021/01/11 02:24:22;;;;;;;42.50;6.20;;;;;;;;;;5041660;28;20045;-68
2021/01/11 02:26:48;;;;;;;;;;;;;;;;;;5040482;28;20102;-68
2021/01/11 02:29:29;;;;;;;32.78;6.50;;;;;;;;;;5041001;28;20534;-68
2021/01/11 02:31:57;;;;;;;33.25;6.78;;;;;;;;;;5040190;28;20044;-68
2021/01/11 02:34:24;;;;;;;25.80;5.97;;;;;;;;;;5041393;28;20058;-68
2021/01/11 02:36:51;;;;;;;42.58;5.72;;;;;;;;;;5040259;28;20068;-68
2021/01/11 02:39:18;;;;;;;47.22;5.93;;;;;;;;;;5039669;28;20087;-68
2021/01/11 02:41:44;;;;;;;36.65;5.47;;;;;;;;;;5042288;28;20041;-68
2021/01/11 02:44:10;;;;;;;22.63;5.13;;;;;;;;;;5039783;28;20481;-68
2021/01/11 02:46:37;;;;;;;26.20;5.20;;;;;;;;;;5041529;28;20044;-68
2021/01/11 02:49:29;;;;;;;34.85;5.95;;;;;;;;;;5041628;28;20045;-68
2021/01/11 02:52:00;;;;;;;36.65;4.70;;;;;;;;;;5038687;28;20064;-68
2021/01/11 02:54:32;;;;;;;36.60;6.13;;;;;;;;;;5040716;28;20410;-68
2021/01/11 02:57:03;;;;;;;34.85;4.90;;;;;;;;;;5041422;28;20041;-68
2021/01/11 02:59:31;;;;;;;26.58;4.85;;;;;;;;;;5044384;28;20048;-68
2021/01/11 03:02:14;;;;;;;39.78;6.15;;;;;;;;;;5038771;28;20425;-68
2021/01/11 03:04:41;;;;;;;31.77;5.38;;;;;;;;;;5041430;28;20044;-68
2021/01/11 03:07:08;;;;;;;22.73;4.70;;;;;;;;;;5040165;28;20055;-69
2021/01/11 03:09:41;;;;;;;30.85;5.07;;;;;;;;;;5039409;28;20115;-68
2021/01/11 03:12:08;;;;;;;43.03;5.60;;;;;;;;;;5038311;28;20100;-68
2021/01/11 03:14:34;;;;;;;35.97;4.82;;;;;;;;;;5041143;28;20417;-68
2021/01/11 03:17:01;;;;;;;32.13;5.63;;;;;;;;;;5042078;28;20046;-68
2021/01/11 03:19:27;;;;;;;29.63;4.47;;;;;;;;;;5039032;28;20175;-69
2021/01/11 03:21:53;;;;;;;35.13;5.75;;;;;;;;;;5036274;28;20311;-68
2021/01/11 03:24:21;;;;;;;42.72;6.10;;;;;;;;;;5041549;28;20049;-68
2021/01/11 03:26:47;;;;;;;24.30;5.68;;;;;;;;;;5038932;28;20048;-69
2021/01/11 03:29:14;;;;;;;32.33;5.63;;;;;;;;;;5039106;28;20048;-68
2021/01/11 03:31:41;;;;;;;32.45;6.00;;;;;;;;;;5036479;28;20044;-68
2021/01/11 03:34:07;;;;;;;36.90;6.05;;;;;;;;;;5040165;28;20413;-68
2021/01/11 03:36:34;;;;;;;40.70;6.47;;;;;;;;;;5041164;28;20615;-68
2021/01/11 03:39:00;;;;;;;37.58;6.97;;;;;;;;;;5041377;28;20052;-68
2021/01/11 03:41:27;;;;;;;37.60;6.70;;;;;;;;;;5040144;28;20664;-68
2021/01/11 03:43:53;;;;;;;35.90;6.35;;;;;;;;;;5040655;28;20107;-68
2021/01/11 03:46:19;;;;;;;33.67;6.80;;;;;;;;;;5040323;28;20625;-69
2021/01/11 03:48:46;;;;;;;32.55;6.07;;;;;;;;;;5038712;28;20060;-68
2021/01/11 03:51:13;;;;;;;43.38;6.38;;;;;;;;;;5040539;28;20404;-69
2021/01/11 03:53:39;;;;;;;32.38;6.47;;;;;;;;;;5040253;28;20132;-69
2021/01/11 03:56:06;;;;;;;35.50;6.75;;;;;;;;;;5041046;28;20130;-69
2021/01/11 03:58:32;;;;;;;48.92;7.15;;;;;;;;;;5038926;28;20045;-69
2021/01/11 04:00:59;;;;;;;39.97;5.60;;;;;;;;;;5040028;28;20084;-69
2021/01/11 04:03:26;;;;;;;32.65;6.93;;;;;;;;;;5036761;28;20520;-69
2021/01/11 04:05:53;;;;;;;30.13;6.47;;;;;;;;;;5039184;28;20069;-69
2021/01/11 04:08:20;;;;;;;35.20;6.77;;;;;;;;;;5039015;28;20041;-69
2021/01/11 04:10:46;;;;;;;33.63;6.10;;;;;;;;;;5041147;28;20095;-69
2021/01/11 04:13:12;;;;;;;32.50;6.10;;;;;;;;;;5035136;28;20444;-69
2021/01/11 04:15:38;;;;;;;42.45;6.88;;;;;;;;;;5039722;28;20128;-69
2021/01/11 04:18:04;;;;;;;33.88;5.95;;;;;;;;;;5038669;28;20042;-69
2021/01/11 04:20:30;;;;;;;34.20;5.50;;;;;;;;;;5039700;28;20037;-69
2021/01/11 04:22:57;;;;;;;50.08;6.90;;;;;;;;;;5039258;28;20056;-69
2021/01/11 04:25:24;;;;;;;30.48;5.75;;;;;;;;;;5041043;28;20028;-69
2021/01/11 04:27:51;;;;;;;41.97;5.95;;;;;;;;;;5036783;28;20061;-69
2021/01/11 04:30:17;;;;;;;27.75;4.53;;;;;;;;;;5039964;28;20116;-69
2021/01/11 04:32:44;;;;;;;32.28;5.85;;;;;;;;;;5040711;28;20397;-69
2021/01/11 04:35:12;;;;;;;40.08;6.78;;;;;;;;;;5036234;28;20068;-70
2021/01/11 04:37:41;;;;;;;50.33;7.43;;;;;;;;;;5041007;28;20053;-70
2021/01/11 04:40:07;;;;;;;31.83;6.03;;;;;;;;;;5037667;28;20033;-70
2021/01/11 04:42:49;;;;;;;32.77;6.10;;;;;;;;;;5038378;28;20048;-70
2021/01/11 04:45:16;;;;;;;26.83;5.82;;;;;;;;;;5038583;28;20459;-70
2021/01/11 04:47:42;;;;;;;40.43;6.53;;;;;;;;;;5038454;28;20040;-70
2021/01/11 04:50:09;;;;;;;34.55;6.10;;;;;;;;;;5039776;28;20288;-70
2021/01/11 04:52:35;;;;;;;31.27;5.03;;;;;;;;;;5038160;28;20301;-71
2021/01/11 04:55:02;;;;;;;28.10;5.30;;;;;;;;;;5040756;28;20091;-71
2021/01/11 04:57:38;;;;;;;36.78;6.18;;;;;;;;;;5036763;28;20044;-71
2021/01/11 05:00:08;;;;;;;37.05;5.53;;;;;;;;;;5040017;28;20045;-71
2021/01/11 05:02:39;;;;;;;25.33;5.50;;;;;;;;;;5035434;28;20033;-71
2021/01/11 05:05:06;;;;;;;26.05;4.97;;;;;;;;;;5038076;28;20056;-72
2021/01/11 05:07:32;;;;;;;35.30;4.97;;;;;;;;;;5039756;28;20489;-71
2021/01/11 05:09:59;;;;;;;16.33;3.80;;;;;;;;;;5040452;28;20068;-71
2021/01/11 05:12:26;;;;;;;21.60;4.47;;;;;;;;;;5037382;28;20037;-72
2021/01/11 05:15:10;;;;;;;13.32;4.10;;;;;;;;;;5037511;28;20044;-72
2021/01/11 05:17:41;;;;;;;18.80;4.30;;;;;;;;;;5033624;28;20045;-72
2021/01/11 05:20:07;;;;;;;13.73;2.97;;;;;;;;;;5038567;28;20052;-72
2021/01/11 05:22:33;;;;;;;11.43;3.70;;;;;;;;;;5037815;28;20163;-72
2021/01/11 05:25:11;;;;;;;17.05;3.42;;;;;;;;;;5036299;28;20169;-72
2021/01/11 05:27:37;;;;;;;13.82;3.17;;;;;;;;;;5036595;28;20478;-72
2021/01/11 05:30:04;;;;;;;14.50;3.22;;;;;;;;;;5040313;28;20041;-72
2021/01/11 05:32:30;;;;;;;8.43;2.53;;;;;;;;;;5037618;28;20107;-72
2021/01/11 05:34:56;;;;;;;10.45;2.65;;;;;;;;;;5038863;28;20045;-72
2021/01/11 05:37:31;;;;;;;12.50;2.75;;;;;;;;;;5039170;28;20045;-72
2021/01/11 05:40:03;;;;;;;7.25;2.13;;;;;;;;;;5038185;28;20041;-73
2021/01/11 05:42:29;;;;;;;9.52;2.10;;;;;;;;;;5035790;28;20041;-72
2021/01/11 05:45:08;;;;;;;9.15;2.20;;;;;;;;;;5038485;28;20123;-73
2021/01/11 05:47:35;;;;;;;5.28;2.20;;;;;;;;;;5036249;28;20049;-72
2021/01/11 05:50:08;;;;;;;8.68;2.08;;;;;;;;;;5040479;28;20044;-72
2021/01/11 05:52:34;;;;;;;4.97;1.65;;;;;;;;;;5038799;28;20045;-72
2021/01/11 05:55:17;;;;;;;5.65;2.05;;;;;;;;;;5040069;28;20104;-72
2021/01/11 05:57:52;;;;;;;2.08;1.48;;;;;;;;;;5039101;28;20056;-72
2021/01/11 06:00:19;;;;;;;3.85;1.42;;;;;;;;;;5042203;28;20045;-72
2021/01/11 06:02:47;;;;;;;4.10;1.40;;;;;;;;;;5037222;28;20041;-73
2021/01/11 06:05:15;;;;;;;4.60;1.77;;;;;;;;;;5036637;28;20053;-72
2021/01/11 06:07:42;;;;;;;5.93;1.30;;;;;;;;;;5037339;28;20033;-72
2021/01/11 06:10:09;;;;;;;3.08;1.42;;;;;;;;;;5038373;28;20041;-73
2021/01/11 06:12:36;;;;;;;3.88;1.60;;;;;;;;;;5038919;28;20048;-73
2021/01/11 06:15:02;;;;;;;;;;;;;;;;;;5040147;28;20080;-73
2021/01/11 06:17:31;;;;;;;4.18;1.17;;;;;;;;;;5038397;28;19963;-73
2021/01/11 06:19:57;;;;;;;2.70;1.03;;;;;;;;;;5039042;28;20045;-73
2021/01/11 06:22:47;;;;;;;1.33;0.88;;;;;;;;;;5039759;28;20305;-73
2021/01/11 06:25:20;;;;;;;2.00;0.90;;;;;;;;;;5036473;28;20084;-74
2021/01/11 06:28:04;;;;;;;1.95;1.00;;;;;;;;;;5037327;28;20092;-73
2021/01/11 06:30:34;;;;;;;1.00;0.80;;;;;;;;;;5036082;28;20037;-73
2021/01/11 06:33:04;;;;;;;3.35;0.65;;;;;;;;;;5039002;28;20049;-73
2021/01/11 06:35:31;;;;;;;2.25;0.75;;;;;;;;;;5038130;28;20662;-73
2021/01/11 06:38:07;;;;;;;0.70;0.70;;;;;;;;;;5039783;28;20069;-73
2021/01/11 06:40:33;;;;;;;3.25;1.38;;;;;;;;;;5040593;28;20103;-74
2021/01/11 06:43:01;;;;;;;0.95;0.77;;;;;;;;;;5039855;28;20114;-74
2021/01/11 06:45:27;;;;;;;;;;;;;;;;;;5042017;28;20127;-74
2021/01/11 06:48:01;;;;;;;0.82;0.70;;;;;;;;;;5040699;28;19920;-74
2021/01/11 06:50:29;;;;;;;0.85;0.63;;;;;;;;;;5043511;28;20071;-74
2021/01/11 06:52:58;;;;;;;0.73;0.60;;;;;;;;;;5042627;28;20076;-74
2021/01/11 06:55:25;;;;;;;1.15;0.60;;;;;;;;;;5043517;28;20088;-74
2021/01/11 06:57:54;;;;;;;0.60;0.50;;;;;;;;;;5043616;28;20056;-74
2021/01/11 07:00:27;;;;;;;1.73;0.60;;;;;;;;;;5039003;28;20418;-75
2021/01/11 07:02:57;;;;;;;0.50;0.50;;;;;;;;;;5040843;28;20061;-75
2021/01/11 07:05:35;;;;;;;1.65;0.60;;;;;;;;;;5043713;28;20045;-75
2021/01/11 07:08:01;;;;;;;;;;;;;;;;;;5044114;28;20055;-75
2021/01/11 07:10:28;;;;;;;0.40;0.40;;;;;;;;;;5041301;28;19927;-76
2021/01/11 07:13:12;;;;;;;2.05;0.73;;;;;;;;;;5043685;28;20098;-76
2021/01/11 07:15:39;;;;;;;0.60;0.60;;;;;;;;;;5040976;28;22624;-76
2021/01/11 07:18:05;;;;;;;0.25;0.25;;;;;;;;;;5040659;28;20045;-75
2021/01/11 07:20:39;;;;;;;0.40;0.40;;;;;;;;;;5040734;28;20045;-76
2021/01/11 07:23:05;;;;;;;0.40;0.40;;;;;;;;;;5043395;28;20045;-76
2021/01/11 07:25:32;;;;;;;0.65;0.30;;;;;;;;;;5035539;28;20068;-76
2021/01/11 07:28:01;;;;;;;1.98;0.43;;;;;;;;;;5042428;28;20144;-76
2021/01/11 07:30:27;;;;;;;0.55;0.40;;;;;;;;;;5041798;28;20045;-76
2021/01/11 07:32:53;;;;;;;0.40;0.40;;;;;;;;;;5041242;28;20064;-76
2021/01/11 07:35:20;;;;;;;0.43;0.38;;;;;;;;;;5041163;28;20595;-76
2021/01/11 07:37:46;;;;;;;0.30;0.30;;;;;;;;;;5041146;28;20456;-76
2021/01/11 07:40:12;;;;;;;0.30;0.30;;;;;;;;;;5041829;28;20041;-76
2021/01/11 07:42:38;;;;;;;0.40;0.40;;;;;;;;;;5041205;28;20053;-76
2021/01/11 07:45:12;;;;;;;0.35;0.35;;;;;;;;;;5043377;28;20120;-76
2021/01/11 07:47:43;;;;;;;;;;;;;;;;;;5039656;28;20128;-76
2021/01/11 07:50:09;;;;;;;0.30;0.30;;;;;;;;;;5039450;28;19955;-76
2021/01/11 07:52:36;;;;;;;0.73;0.38;;;;;;;;;;5042203;28;20049;-76
2021/01/11 07:55:03;;;;;;;0.20;0.20;;;;;;;;;;5038742;28;20116;-76
2021/01/11 07:57:29;;;;;;;;;;;;;;;;;;5039562;28;20057;-76
2021/01/11 08:00:10;;;;;;;0.30;0.30;;;;;;;;;;5039607;28;19931;-76
2021/01/11 08:02:40;;;;;;;0.40;0.40;;;;;;;;;;5040111;28;20522;-75
2021/01/11 08:05:19;;;;;;;0.30;0.30;;;;;;;;;;5040336;28;20508;-75
2021/01/11 08:07:48;;;;;;;0.40;0.40;;;;;;;;;;5040953;28;20049;-76
2021/01/11 08:10:15;;;;;;;0.35;0.35;;;;;;;;;;5039914;28;20045;-75
2021/01/11 08:12:41;;;;;;;0.30;0.30;;;;;;;;;;5041509;28;20049;-75
2021/01/11 08:15:08;;;;;;;0.30;0.30;;;;;;;;;;5041530;28;20425;-75
2021/01/11 08:17:40;;;;;;;0.43;0.43;;;;;;;;;;5038063;28;20053;-74
2021/01/11 08:20:07;;;;;;;0.40;0.40;;;;;;;;;;5040088;28;20052;-74
2021/01/11 08:22:34;;;;;;;0.32;0.32;;;;;;;;;;5039908;28;20037;-74
2021/01/11 08:25:00;;;;;;;0.63;0.40;;;;;;;;;;5038448;28;20505;-74
2021/01/11 08:27:34;;;;;;;0.30;0.30;;;;;;;;;;5041971;28;20057;-74
2021/01/11 08:30:03;;;;;;;0.47;0.47;;;;;;;;;;5040479;28;20064;-74
2021/01/11 08:32:31;;;;;;;0.55;0.30;;;;;;;;;;5040876;28;20052;-73
2021/01/11 08:34:58;;;;;;;0.75;0.50;;;;;;;;;;5039344;28;20049;-73
2021/01/11 08:37:28;;;;;;;0.75;0.60;;;;;;;;;;5039121;28;20049;-73
2021/01/11 08:40:05;;;;;;;0.38;0.38;;;;;;;;;;5040911;28;20053;-73
2021/01/11 08:42:31;;;;;;;0.40;0.40;;;;;;;;;;5040589;28;20041;-73
2021/01/11 08:45:17;;;;;;;0.52;0.50;;;;;;;;;;5039823;28;20072;-72
2021/01/11 08:47:43;;;;;;;0.43;0.43;;;;;;;;;;5037206;28;20041;-72
2021/01/11 08:50:09;;;;;;;1.10;0.85;;;;;;;;;;5035132;28;20141;-72
2021/01/11 08:52:36;;;;;;;0.70;0.47;;;;;;;;;;5039789;28;20056;-72
2021/01/11 08:55:09;;;;;;;0.30;0.30;;;;;;;;;;5038151;28;20434;-71
2021/01/11 08:57:36;;;;;;;0.73;0.55;;;;;;;;;;5038309;28;20050;-71
2021/01/11 09:00:10;;;;;;;0.40;0.40;;;;;;;;;;5043065;28;20041;-71
2021/01/11 09:02:44;;;;;;;0.65;0.50;;;;;;;;;;5037965;28;20040;-70
2021/01/11 09:05:23;;;;;;;0.68;0.68;;;;;;;;;;5035009;28;20049;-70
2021/01/11 09:07:53;;;;;;;0.50;0.50;;;;;;;;;;5041699;28;20045;-70
2021/01/11 09:10:19;;;;;;;0.73;0.60;;;;;;;;;;5038911;28;20041;-69
2021/01/11 09:12:46;;;;;;;0.75;0.60;;;;;;;;;;5039929;28;20045;-69
2021/01/11 09:15:12;;;;;;;1.10;0.60;;;;;;;;;;5039966;28;20091;-69
2021/01/11 09:17:39;;;;;;;1.15;0.65;;;;;;;;;;5037905;28;20048;-69
2021/01/11 09:20:05;;;;;;;2.47;0.70;;;;;;;;;;5037447;28;20043;-69
2021/01/11 09:22:36;;;;;;;1.10;0.70;;;;;;;;;;5037272;28;20041;-69
2021/01/11 09:25:07;;;;;;;1.02;0.80;;;;;;;;;;5039512;28;20052;-68
2021/01/11 09:27:34;;;;;;;1.95;0.90;;;;;;;;;;5040546;28;20045;-69
2021/01/11 09:30:01;;;;;;;2.28;1.00;;;;;;;;;;5039304;28;20048;-69
2021/01/11 09:32:27;;;;;;;4.60;1.30;;;;;;;;;;5040013;28;20041;-69
2021/01/11 09:34:53;;;;;;;4.45;1.02;;;;;;;;;;5040294;28;20130;-69
2021/01/11 09:37:19;;;;;;;1.38;0.90;;;;;;;;;;5039783;28;20041;-69
2021/01/11 09:39:46;;;;;;;0.68;0.65;;;;;;;;;;5038793;28;20053;-69
2021/01/11 09:42:13;;;;;;;5.40;1.00;;;;;;;;;;5038577;28;20072;-69
2021/01/11 09:44:40;;;;;;;2.05;0.88;;;;;;;;;;5040566;28;20382;-69
2021/01/11 09:47:09;;;;;;;2.38;0.70;;;;;;;;;;5037432;28;20065;-69
2021/01/11 09:49:35;;;;;;;1.90;0.90;;;;;;;;;;5038900;28;20136;-69
2021/01/11 09:52:02;;;;;;;2.10;1.13;;;;;;;;;;5037788;28;20037;-70
2021/01/11 09:54:28;;;;;;;1.45;0.90;;;;;;;;;;5037138;28;20056;-69
2021/01/11 09:56:56;;;;;;;1.52;1.02;;;;;;;;;;5038248;28;20125;-70
2021/01/11 09:59:23;;;;;;;2.92;1.10;;;;;;;;;;5039049;28;20041;-70
2021/01/11 10:01:49;;;;;;;3.28;1.30;;;;;;;;;;5040030;28;20048;-70
2021/01/11 10:04:16;;;;;;;1.73;1.00;;;;;;;;;;5035926;28;20060;-70
2021/01/11 10:06:53;;;;;;;5.18;1.35;;;;;;;;;;5038671;28;20511;-70
2021/01/11 10:09:21;;;;;;;3.42;1.60;;;;;;;;;;5039824;28;20061;-70
2021/01/11 10:11:48;;;;;;;4.00;1.00;;;;;;;;;;5040725;28;20045;-69
2021/01/11 10:14:14;;;;;;;4.80;1.42;;;;;;;;;;5040290;28;20049;-70
2021/01/11 10:16:42;;;;;;;5.28;1.35;;;;;;;;;;5040440;28;20045;-70
2021/01/11 10:19:09;;;;;;;4.28;1.42;;;;;;;;;;5043210;28;20050;-69
2021/01/11 10:21:36;;;;;;;3.67;1.23;;;;;;;;;;5041394;28;20048;-69
2021/01/11 10:24:03;;;;;;;4.45;1.38;;;;;;;;;;5045261;28;20139;-69
2021/01/11 10:26:29;;;;;;;6.53;1.60;;;;;;;;;;5041231;28;20081;-69
2021/01/11 10:28:55;;;;;;;6.13;1.88;;;;;;;;;;5040964;28;20103;-70
2021/01/11 10:31:21;;;;;;;4.00;1.90;;;;;;;;;;5040917;28;20110;-69
2021/01/11 10:33:48;;;;;;;3.67;1.88;;;;;;;;;;5042424;28;20053;-69
2021/01/11 10:36:15;;;;;;;4.53;2.20;;;;;;;;;;5042135;28;20117;-70
2021/01/11 10:38:42;;;;;;;5.77;2.13;;;;;;;;;;5041405;28;20045;-69
2021/01/11 10:41:08;;;;;;;9.73;2.20;;;;;;;;;;5041423;28;20041;-70
2021/01/11 10:43:35;;;;;;;3.88;1.88;;;;;;;;;;5038790;28;20413;-70
2021/01/11 10:46:02;;;;;;;7.47;2.13;;;;;;;;;;5043637;28;20045;-70
2021/01/11 10:48:28;;;;;;;5.38;2.38;;;;;;;;;;5042652;28;20120;-70
2021/01/11 10:50:58;;;;;;;7.32;2.38;;;;;;;;;;5042724;28;20033;-70
2021/01/11 10:53:24;;;;;;;4.10;2.00;;;;;;;;;;5044106;28;20143;-70
2021/01/11 10:55:51;;;;;;;3.67;2.47;;;;;;;;;;5042478;28;20045;-70
2021/01/11 10:58:17;;;;;;;4.97;2.22;;;;;;;;;;5046318;28;20045;-71
2021/01/11 11:00:44;;;;;;;5.07;2.00;;;;;;;;;;5040861;28;20047;-71
2021/01/11 11:03:10;;;;;;;4.47;1.95;;;;;;;;;;5040734;28;20041;-71
2021/01/11 11:05:36;;;;;;;3.15;2.00;;;;;;;;;;5045201;28;20053;-71
2021/01/11 11:08:03;;;;;;;5.85;2.40;;;;;;;;;;5040779;28;20048;-71
2021/01/11 11:10:30;;;;;;;7.03;2.60;;;;;;;;;;5042685;28;20045;-71
2021/01/11 11:12:56;;;;;;;4.45;2.22;;;;;;;;;;5041552;28;20049;-71
2021/01/11 11:15:22;;;;;;;6.13;2.38;;;;;;;;;;5043718;28;20049;-71
2021/01/11 11:17:48;;;;;;;12.25;2.20;;;;;;;;;;5039270;28;20492;-71
2021/01/11 11:20:15;;;;;;;8.82;2.95;;;;;;;;;;5041958;28;20596;-71
2021/01/11 11:22:42;;;;;;;8.43;2.27;;;;;;;;;;5040685;28;20045;-71
2021/01/11 11:25:08;;;;;;;9.20;3.03;;;;;;;;;;5039371;28;20460;-72
2021/01/11 11:27:35;;;;;;;10.55;3.65;;;;;;;;;;5041251;28;20049;-71
2021/01/11 11:30:06;;;;;;;9.73;3.78;;;;;;;;;;5037957;28;20049;-72
2021/01/11 11:32:34;;;;;;;14.65;4.07;;;;;;;;;;5039605;28;20049;-71
2021/01/11 11:35:04;;;;;;;13.02;4.32;;;;;;;;;;5041521;28;20475;-72
2021/01/11 11:37:32;;;;;;;12.07;4.03;;;;;;;;;;5039897;28;20048;-72
2021/01/11 11:39:58;;;;;;;;;;;;;;;;;;5043498;28;20075;-72
2021/01/11 11:42:24;;;;;;;12.07;3.88;;;;;;;;;;5040230;28;19920;-72
2021/01/11 11:44:51;;;;;;;10.45;4.00;;;;;;;;;;5040689;28;20057;-72
2021/01/11 11:47:18;;;;;;;10.95;4.22;;;;;;;;;;5039728;28;20053;-72
2021/01/11 11:49:58;;;;;;;9.13;4.15;;;;;;;;;;5041983;28;20041;-72
2021/01/11 11:52:25;;;;;;;11.52;4.45;;;;;;;;;;5040168;28;20492;-72
2021/01/11 11:54:51;;;;;;;12.43;4.28;;;;;;;;;;5041318;28;20681;-72
2021/01/11 11:57:17;;;;;;;19.00;4.57;;;;;;;;;;5042571;28;20103;-72
2021/01/11 11:59:43;;;;;;;17.80;4.50;;;;;;;;;;5041943;28;20075;-72
2021/01/11 12:02:12;;;;;;;17.48;4.55;;;;;;;;;;5040862;28;20095;-72
2021/01/11 12:04:39;;;;;;;15.23;4.63;;;;;;;;;;5038226;28;20060;-72
2021/01/11 12:07:13;;;;;;;14.05;4.03;;;;;;;;;;5040123;28;20162;-72
2021/01/11 12:09:40;;;;;;;19.17;4.82;;;;;;;;;;5040591;28;20040;-72
2021/01/11 12:12:06;;;;;;;13.25;4.40;;;;;;;;;;5040001;28;20041;-72
2021/01/11 12:14:33;;;;;;;18.10;4.40;;;;;;;;;;5041368;28;20055;-72
2021/01/11 12:16:59;;;;;;;16.23;4.60;;;;;;;;;;5040266;28;20045;-72
2021/01/11 12:19:25;;;;;;;15.05;3.85;;;;;;;;;;5039686;28;20084;-72
2021/01/11 12:21:52;;;;;;;20.92;4.53;;;;;;;;;;5040247;28;20049;-72
2021/01/11 12:24:18;;;;;;;9.50;3.67;;;;;;;;;;5041078;28;20084;-72
2021/01/11 12:26:45;;;;;;;10.23;3.03;;;;;;;;;;5038612;28;20414;-72
2021/01/11 12:29:12;;;;;;;11.70;4.00;;;;;;;;;;5037413;28;20053;-72
2021/01/11 12:31:38;;;;;;;7.93;2.80;;;;;;;;;;5033834;28;20049;-72
2021/01/11 12:34:05;;;;;;;11.35;3.30;;;;;;;;;;5038373;28;20037;-72
2021/01/11 12:36:32;;;;;;;13.20;3.50;;;;;;;;;;5040024;28;20041;-72
2021/01/11 12:38:59;;;;;;;15.00;3.78;;;;;;;;;;5032756;28;20049;-72
2021/01/11 12:41:25;;;;;;;9.55;3.38;;;;;;;;;;5041052;28;20073;-72
2021/01/11 12:43:52;;;;;;;16.00;4.15;;;;;;;;;;5041574;28;20045;-73
2021/01/11 12:46:19;;;;;;;8.27;3.10;;;;;;;;;;5038421;28;20096;-72
2021/01/11 12:48:46;;;;;;;17.55;3.50;;;;;;;;;;5041729;28;20041;-72
2021/01/11 12:51:13;;;;;;;13.38;3.75;;;;;;;;;;5041752;28;20041;-72
2021/01/11 12:53:39;;;;;;;11.57;2.92;;;;;;;;;;5033746;28;20047;-72
2021/01/11 12:56:15;;;;;;;9.32;3.28;;;;;;;;;;5037271;28;20037;-72
2021/01/11 12:58:42;;;;;;;13.93;3.50;;;;;;;;;;5041462;28;20057;-72
2021/01/11 13:01:08;;;;;;;11.65;3.08;;;;;;;;;;5039928;28;20073;-73
2021/01/11 13:03:35;;;;;;;9.07;2.78;;;;;;;;;;5041563;28;20187;-72
2021/01/11 13:06:01;;;;;;;12.10;3.13;;;;;;;;;;5039149;28;20386;-72
2021/01/11 13:08:28;;;;;;;12.45;3.45;;;;;;;;;;5037069;28;20087;-73
2021/01/11 13:10:54;;;;;;;15.82;3.15;;;;;;;;;;5037826;28;20559;-73
2021/01/11 13:13:20;;;;;;;12.05;3.20;;;;;;;;;;5040332;28;20041;-73
2021/01/11 13:15:47;;;;;;;8.45;3.45;;;;;;;;;;5040348;28;20140;-74
2021/01/11 13:18:14;;;;;;;14.35;3.35;;;;;;;;;;5040201;28;20051;-73
2021/01/11 13:20:41;;;;;;;8.90;2.85;;;;;;;;;;5038469;28;20065;-73
2021/01/11 13:23:07;;;;;;;18.50;4.57;;;;;;;;;;5036641;28;20103;-73
2021/01/11 13:25:33;;;;;;;10.77;3.13;;;;;;;;;;5039325;28;20045;-73
2021/01/11 13:27:59;;;;;;;24.48;4.22;;;;;;;;;;5038215;28;20580;-73
2021/01/11 13:30:26;;;;;;;14.70;3.58;;;;;;;;;;5039164;28;20124;-73
2021/01/11 13:32:52;;;;;;;15.27;3.60;;;;;;;;;;5036163;28;20041;-73
2021/01/11 13:35:19;;;;;;;19.35;3.58;;;;;;;;;;5036742;28;20041;-74
2021/01/11 13:37:45;;;;;;;24.50;3.92;;;;;;;;;;5039275;28;20133;-74
2021/01/11 13:40:11;;;;;;;15.40;3.92;;;;;;;;;;5038216;28;20037;-74
2021/01/11 13:42:38;;;;;;;14.40;3.25;;;;;;;;;;5037511;28;20124;-74
2021/01/11 13:45:05;;;;;;;12.02;3.60;;;;;;;;;;5040765;28;20060;-73
2021/01/11 13:47:31;;;;;;;20.70;4.15;;;;;;;;;;5035224;28;20042;-73
2021/01/11 13:49:57;;;;;;;9.80;3.25;;;;;;;;;;5040790;28;20053;-73
2021/01/11 13:52:27;;;;;;;25.00;4.72;;;;;;;;;;5038552;28;20080;-73
2021/01/11 13:54:53;;;;;;;21.40;4.22;;;;;;;;;;5037864;28;20190;-73
2021/01/11 13:57:19;;;;;;;14.15;4.18;;;;;;;;;;5038280;28;20378;-73
2021/01/11 13:59:46;;;;;;;20.65;4.47;;;;;;;;;;5029451;28;20092;-73
2021/01/11 14:02:12;;;;;;;19.25;4.10;;;;;;;;;;5039893;28;20036;-73
2021/01/11 14:04:38;;;;;;;26.23;4.70;;;;;;;;;;5037569;28;20404;-72
2021/01/11 14:07:04;;;;;;;21.55;4.43;;;;;;;;;;5039360;28;20124;-73
2021/01/11 14:09:30;;;;;;;18.45;4.03;;;;;;;;;;5037744;28;20410;-73
2021/01/11 14:12:00;;;;;;;17.15;4.30;;;;;;;;;;5038950;28;20037;-73
2021/01/11 14:14:27;;;;;;;36.13;4.90;;;;;;;;;;5035882;28;20049;-73
2021/01/11 14:16:55;;;;;;;15.30;4.22;;;;;;;;;;5041964;28;20053;-73
2021/01/11 14:19:21;;;;;;;;;;;;;;;;;;5039330;28;20048;-73
2021/01/11 14:21:48;;;;;;;19.98;3.80;;;;;;;;;;5040156;28;19921;-74
2021/01/11 14:24:24;;;;;;;18.70;4.22;;;;;;;;;;5040049;28;20453;-73
2021/01/11 14:26:50;;;;;;;16.55;4.15;;;;;;;;;;5038219;28;20144;-73
2021/01/11 14:29:17;;;;;;;19.65;4.15;;;;;;;;;;5040206;28;20374;-73
2021/01/11 14:31:43;;;;;;;21.13;3.85;;;;;;;;;;5037682;28;20151;-72
2021/01/11 14:34:09;;;;;;;19.67;3.73;;;;;;;;;;5041434;28;20136;-73
2021/01/11 14:36:35;;;;;;;11.68;3.70;;;;;;;;;;5034982;28;20049;-72
2021/01/11 14:39:02;;;;;;;13.05;3.13;;;;;;;;;;5037710;28;20037;-73
2021/01/11 14:41:28;;;;;;;19.70;3.08;;;;;;;;;;5040754;28;20091;-73
2021/01/11 14:43:54;;;;;;;17.95;3.55;;;;;;;;;;5040327;28;20095;-73